Time;durP1;ratioP1;P1;durP2;ratioP2;P2;SDS_P1;SDS_P2;PMS_P1;PMS_P2;Temp;Humidity;BMP_temperature;BMP_pressure;BME280_temperature;BME280_humidity;BME280_pressure;Samples;Min_cycle;Max_cycle;Signal;HPM_P1;HPM_P2
2024/04/19 00:01:26;;;;;;;7.13;3.30;;;-0.60;99.90;;;;;;1843990;77;25198;-86
2024/04/19 00:04:15;;;;;;;4.57;2.93;;;-0.60;99.90;;;;;;1789665;80;25691;-86
2024/04/19 00:07:04;;;;;;;7.20;3.10;;;-0.50;99.90;;;;;;1873916;75;25271;-86
2024/04/19 00:09:53;;;;;;;6.40;3.43;;;-0.50;99.90;;;;;;1894763;75;25291;-87
2024/04/19 00:15:31;;;;;;;8.30;3.63;;;-0.30;99.90;;;;;;1946640;71;27525;-87
2024/04/19 00:21:00;;;;;;;7.57;3.80;;;-0.20;99.90;;;;;;1973612;72;27455;-87
2024/04/19 00:23:49;;;;;;;6.87;4.10;;;-0.10;99.90;;;;;;1940441;73;25168;-87
2024/04/19 00:26:37;;;;;;;7.07;3.63;;;0.00;99.90;;;;;;1917397;73;25722;-87
2024/04/19 00:29:26;;;;;;;7.20;3.40;;;0.00;99.90;;;;;;1928188;73;25164;-86
2024/04/19 00:32:15;;;;;;;11.30;3.70;;;0.00;99.90;;;;;;1934355;73;25222;-86
2024/04/19 00:35:04;;;;;;;8.80;3.50;;;0.00;99.90;;;;;;1926956;73;25201;-87
2024/04/19 00:37:53;;;;;;;6.70;3.43;;;0.00;99.90;;;;;;1925135;73;25285;-87
2024/04/19 00:40:41;;;;;;;8.20;3.70;;;0.10;99.90;;;;;;1923445;73;25310;-86
2024/04/19 00:43:30;;;;;;;7.53;3.53;;;0.20;99.90;;;;;;1929870;73;25345;-87
2024/04/19 00:49:00;;;;;;;8.40;3.90;;;0.60;99.90;;;;;;1948919;72;27082;-87
2024/04/19 00:54:31;;;;;;;8.73;3.83;;;0.80;99.90;;;;;;1929688;72;27221;-87
2024/04/19 00:57:20;;;;;;;7.90;3.90;;;0.80;99.90;;;;;;1863691;75;25360;-86
2024/04/19 01:02:54;;;;;;;5.37;3.20;;;1.10;99.90;;;;;;1958852;72;27019;-87
2024/04/19 01:05:43;;;;;;;6.70;3.80;;;1.10;99.90;;;;;;1923923;73;25352;-88
2024/04/19 01:08:31;;;;;;;7.87;3.77;;;1.10;99.90;;;;;;1928918;73;25160;-86
2024/04/19 01:11:20;;;;;;;8.17;3.10;;;1.00;99.90;;;;;;1933991;73;25736;-86
2024/04/19 01:14:09;;;;;;;8.33;3.57;;;1.10;99.90;;;;;;1924705;73;25161;-86
2024/04/19 01:16:57;;;;;;;9.60;3.93;;;1.00;99.90;;;;;;1926678;73;25164;-86
2024/04/19 01:19:45;;;;;;;6.13;3.20;;;1.10;99.90;;;;;;1930912;73;25621;-86
2024/04/19 01:22:34;;;;;;;6.87;3.60;;;1.00;99.90;;;;;;1929940;73;25707;-86
2024/04/19 01:28:09;;;;;;;6.60;3.30;;;1.00;99.90;;;;;;1950050;72;27130;-86
2024/04/19 01:30:58;;;;;;;8.63;3.90;;;1.10;99.90;;;;;;1935937;73;25231;-87
2024/04/19 01:33:46;;;;;;;8.87;3.90;;;1.10;99.90;;;;;;1920641;73;25231;-87
2024/04/19 01:39:20;;;;;;;6.00;3.67;;;1.00;99.90;;;;;;1951699;72;27033;-87
2024/04/19 01:42:10;;;;;;;9.40;4.00;;;1.00;99.90;;;;;;1925349;73;25632;-87
2024/04/19 01:44:59;;;;;;;4.50;2.57;;;1.00;99.90;;;;;;1936297;73;25897;-86
2024/04/19 01:47:48;;;;;;;6.57;2.83;;;1.00;99.90;;;;;;1925279;73;25689;-87
2024/04/19 01:50:36;;;;;;;7.13;3.33;;;1.10;99.90;;;;;;1927831;73;25160;-85
2024/04/19 01:53:25;;;;;;;6.53;2.90;;;1.00;99.90;;;;;;1929260;73;25224;-86
2024/04/19 01:56:13;;;;;;;6.23;3.50;;;1.00;99.90;;;;;;1911302;75;25231;-87
2024/04/19 01:59:03;;;;;;;9.80;3.50;;;1.00;99.90;;;;;;1893561;75;25251;-86
2024/04/19 02:01:51;;;;;;;8.23;3.60;;;0.90;99.90;;;;;;1886241;75;25741;-86
2024/04/19 02:04:40;;;;;;;10.00;3.63;;;0.90;99.90;;;;;;1905372;75;25314;-85
2024/04/19 02:10:20;;;;;;;4.73;2.93;;;0.90;99.90;;;;;;1959792;72;27637;-87
2024/04/19 02:13:09;;;;;;;7.70;3.87;;;1.00;99.90;;;;;;1926994;72;25162;-87
2024/04/19 02:15:57;;;;;;;4.07;1.93;;;1.00;99.90;;;;;;1880322;75;25328;-87
2024/04/19 02:18:47;;;;;;;4.63;3.13;;;1.00;99.90;;;;;;1894476;73;25171;-85
2024/04/19 02:24:15;;;;;;;8.63;3.77;;;1.00;99.90;;;;;;1953837;72;27083;-87
2024/04/19 02:27:06;;;;;;;6.60;3.37;;;0.90;99.90;;;;;;1899945;75;25303;-86
2024/04/19 02:35:39;;;;;;;5.87;3.20;;;1.00;99.90;;;;;;1944798;72;26586;-86
2024/04/19 02:38:27;;;;;;;7.50;3.30;;;1.00;99.90;;;;;;1911981;75;25244;-86
2024/04/19 02:41:15;;;;;;;11.17;3.97;;;0.90;99.90;;;;;;1915477;75;25299;-86
2024/04/19 02:44:04;;;;;;;10.50;3.67;;;1.00;99.90;;;;;;1905861;75;25902;-86
2024/04/19 02:46:52;;;;;;;6.70;3.40;;;1.00;99.90;;;;;;1904882;75;25245;-86
2024/04/19 02:49:41;;;;;;;7.33;3.47;;;1.00;99.90;;;;;;1892868;74;25203;-86
2024/04/19 02:52:29;;;;;;;8.20;3.90;;;1.10;99.90;;;;;;1865105;76;25271;-87
2024/04/19 02:55:18;;;;;;;5.50;3.53;;;1.10;99.90;;;;;;1911480;74;25748;-87
2024/04/19 02:58:07;;;;;;;7.03;3.17;;;1.20;99.90;;;;;;1908074;75;25154;-86
2024/04/19 03:03:34;;;;;;;5.90;3.67;;;1.20;99.90;;;;;;1929528;72;27139;-87
2024/04/19 03:06:23;;;;;;;8.47;3.07;;;1.10;99.90;;;;;;1868169;76;25266;-86
2024/04/19 03:09:12;;;;;;;6.27;3.40;;;1.00;99.90;;;;;;1831509;76;25295;-87
2024/04/19 03:12:00;;;;;;;6.37;3.27;;;1.00;99.90;;;;;;1850275;76;25234;-87
2024/04/19 03:14:49;;;;;;;9.13;3.63;;;0.90;99.90;;;;;;1877651;76;25292;-86
2024/04/19 03:17:37;;;;;;;5.63;2.67;;;1.00;99.90;;;;;;1843378;76;26334;-86
2024/04/19 03:20:26;;;;;;;6.60;3.43;;;1.10;99.90;;;;;;1877351;75;25257;-86
2024/04/19 03:23:14;;;;;;;8.17;3.33;;;1.10;99.90;;;;;;1848805;76;25297;-86
2024/04/19 03:26:03;;;;;;;4.40;2.97;;;1.10;99.90;;;;;;1869295;76;25264;-86
2024/04/19 03:28:52;;;;;;;6.13;3.30;;;1.10;99.90;;;;;;1849925;76;25351;-86
2024/04/19 03:31:41;;;;;;;6.67;3.50;;;1.10;99.90;;;;;;1865089;76;25306;-86
2024/04/19 03:34:29;;;;;;;6.07;3.10;;;1.10;99.90;;;;;;1833791;76;25265;-86
2024/04/19 03:40:00;;;;;;;6.80;3.37;;;1.10;99.90;;;;;;1949686;72;27708;-87
2024/04/19 03:45:41;;;;;;;9.07;3.60;;;1.10;99.90;;;;;;1959098;72;26996;-87
2024/04/19 03:48:30;;;;;;;2.33;1.97;;;1.20;99.90;;;;;;1938399;72;25282;-87
2024/04/19 03:51:18;;;;;;;3.70;2.47;;;1.10;99.90;;;;;;1939949;72;25851;-86
2024/04/19 03:54:07;;;;;;;5.00;2.90;;;1.10;99.90;;;;;;1922294;74;25237;-87
2024/04/19 03:56:55;;;;;;;5.93;2.90;;;1.10;99.90;;;;;;1921948;74;25282;-86
2024/04/19 03:59:44;;;;;;;5.67;2.83;;;1.10;99.90;;;;;;1928903;74;25303;-87
2024/04/19 04:02:33;;;;;;;5.13;2.90;;;1.10;99.90;;;;;;1906641;74;25183;-86
2024/04/19 04:05:22;;;;;;;4.67;2.90;;;1.20;99.90;;;;;;1926083;74;25219;-86
2024/04/19 04:08:10;;;;;;;4.50;2.53;;;1.20;99.90;;;;;;1921866;74;25260;-87
2024/04/19 04:11:00;;;;;;;5.77;2.93;;;1.20;99.90;;;;;;1921693;74;25996;-86
2024/04/19 04:19:04;;;;;;;6.30;3.40;;;1.20;99.90;;;;;;1955643;72;26350;-87
2024/04/19 04:24:32;;;;;;;5.33;3.03;;;1.10;99.90;;;;;;1940353;72;27685;-86
2024/04/19 04:27:21;;;;;;;6.80;3.23;;;1.00;99.90;;;;;;1886085;75;25251;-87
2024/04/19 04:30:11;;;;;;;4.57;2.27;;;1.00;99.90;;;;;;1912588;75;25247;-87
2024/04/19 04:35:46;;;;;;;5.87;3.13;;;0.90;99.90;;;;;;1946992;72;27000;-87
2024/04/19 04:38:35;;;;;;;7.20;3.97;;;0.90;99.90;;;;;;1933088;73;25218;-87
2024/04/19 04:41:24;;;;;;;9.93;3.53;;;0.90;99.90;;;;;;1938600;73;25197;-87
2024/04/19 04:44:13;;;;;;;5.17;2.63;;;1.00;99.90;;;;;;1927900;73;25217;-87
2024/04/19 04:47:02;;;;;;;6.63;3.27;;;0.90;99.90;;;;;;1929475;73;25213;-86
2024/04/19 04:49:50;;;;;;;5.70;3.03;;;0.90;99.90;;;;;;1925235;73;25252;-87
2024/04/19 04:52:39;;;;;;;4.90;3.00;;;0.90;99.90;;;;;;1928081;73;25338;-85
2024/04/19 04:55:28;;;;;;;6.20;2.43;;;0.90;99.90;;;;;;1898168;73;25758;-88
2024/04/19 04:58:17;;;;;;;7.77;3.43;;;0.90;99.90;;;;;;1885188;75;25226;-88
2024/04/19 05:01:05;;;;;;;5.43;2.77;;;0.90;99.90;;;;;;1888042;75;25255;-88
2024/04/19 05:06:39;;;;;;;3.70;1.97;;;0.90;99.90;;;;;;1943810;72;27080;-88
2024/04/19 05:09:30;;;;;;;4.90;2.53;;;1.00;99.90;;;;;;1893939;74;25290;-87
2024/04/19 05:12:21;;;;;;;5.90;3.73;;;1.00;99.90;;;;;;1883466;75;25244;-86
2024/04/19 05:15:16;;;;;;;6.50;3.97;;;1.00;99.90;;;;;;1887132;75;25221;-88
2024/04/19 05:21:05;;;;;;;4.60;2.57;;;1.00;99.90;;;;;;1964776;72;28183;-87
2024/04/19 05:23:54;;;;;;;6.50;3.33;;;1.00;99.90;;;;;;1919414;73;26440;-87
2024/04/19 05:26:42;;;;;;;5.73;2.97;;;1.00;99.90;;;;;;1927477;73;25259;-88
2024/04/19 05:29:30;;;;;;;5.10;3.27;;;1.00;99.90;;;;;;1924382;73;25223;-87
2024/04/19 05:32:19;;;;;;;7.50;3.90;;;1.00;99.90;;;;;;1930640;73;25243;-87
2024/04/19 05:37:52;;;;;;;7.10;3.33;;;1.00;99.90;;;;;;1957264;72;28669;-85
2024/04/19 05:40:43;;;;;;;12.83;5.30;;;1.00;99.90;;;;;;1896268;73;25796;-88
2024/04/19 05:43:36;;;;;;;7.27;3.60;;;1.00;99.90;;;;;;1926172;73;25303;-88
2024/04/19 05:46:25;;;;;;;10.37;4.27;;;1.10;99.90;;;;;;1920184;73;25287;-88
2024/04/19 05:52:00;;;;;;;7.07;3.50;;;1.10;99.90;;;;;;1944031;72;27145;-87
2024/04/19 05:54:49;;;;;;;3.77;1.90;;;1.10;99.90;;;;;;1918197;73;25781;-86
2024/04/19 06:00:19;;;;;;;11.27;4.53;;;1.00;99.90;;;;;;1910498;72;27533;-87
2024/04/19 06:03:07;;;;;;;9.83;4.17;;;1.00;99.90;;;;;;1914350;75;25562;-87
2024/04/19 06:05:56;;;;;;;3.67;2.17;;;1.00;99.90;;;;;;1907590;74;25159;-88
2024/04/19 06:08:44;;;;;;;5.23;2.83;;;1.00;99.90;;;;;;1904307;75;25238;-86
2024/04/19 06:11:33;;;;;;;8.20;3.30;;;1.00;99.90;;;;;;1908189;75;25171;-87
2024/04/19 06:14:22;;;;;;;8.37;4.53;;;1.00;99.90;;;;;;1908327;74;25316;-87
2024/04/19 06:17:11;;;;;;;6.67;2.83;;;1.10;99.90;;;;;;1902125;75;25332;-87
2024/04/19 06:22:39;;;;;;;4.73;2.53;;;1.10;99.90;;;;;;1930786;72;27071;-87
2024/04/19 06:28:12;;;;;;;4.97;3.10;;;1.20;99.90;;;;;;1919527;74;27706;-85
2024/04/19 06:33:47;;;;;;;5.90;3.47;;;1.40;99.90;;;;;;1946249;72;27507;-87
2024/04/19 06:36:36;;;;;;;11.07;5.07;;;1.40;99.90;;;;;;1904438;73;25158;-87
2024/04/19 06:39:26;;;;;;;8.83;4.37;;;1.60;99.90;;;;;;1903370;73;25305;-87
2024/04/19 06:42:14;;;;;;;10.10;5.00;;;1.70;99.90;;;;;;1874339;75;25309;-87
2024/04/19 06:45:04;;;;;;;9.43;4.90;;;1.80;99.90;;;;;;1885730;75;25219;-87
2024/04/19 06:47:52;;;;;;;6.00;3.57;;;1.70;99.90;;;;;;1839915;76;25778;-87
2024/04/19 06:50:41;;;;;;;5.63;2.80;;;1.70;99.90;;;;;;1864221;76;25232;-87
2024/04/19 06:53:30;;;;;;;7.97;4.27;;;1.70;99.90;;;;;;1814996;78;25272;-87
2024/04/19 06:56:19;;;;;;;6.23;2.87;;;1.80;99.90;;;;;;1881716;75;25321;-87
2024/04/19 06:59:08;;;;;;;5.30;2.87;;;1.90;99.90;;;;;;1828496;78;25218;-84
2024/04/19 07:01:59;;;;;;;7.83;3.20;;;1.70;99.90;;;;;;1795683;80;25709;-87
2024/04/19 07:04:48;;;;;;;7.00;3.90;;;1.70;99.90;;;;;;1869095;76;25270;-87
2024/04/19 07:10:22;;;;;;;5.47;3.17;;;1.90;99.90;;;;;;1948382;72;27035;-86
2024/04/19 07:15:52;;;;;;;4.50;2.67;;;2.00;99.90;;;;;;1963169;72;27016;-85
2024/04/19 07:18:40;;;;;;;4.53;2.17;;;2.00;99.90;;;;;;1927254;73;25282;-87
2024/04/19 07:21:29;;;;;;;3.20;2.00;;;1.90;99.90;;;;;;1917038;73;25288;-87
2024/04/19 07:24:18;;;;;;;6.87;3.13;;;1.90;99.90;;;;;;1917179;73;25641;-87
2024/04/19 07:27:07;;;;;;;4.23;2.87;;;1.90;99.90;;;;;;1916822;73;25227;-87
2024/04/19 07:29:56;;;;;;;5.70;1.97;;;2.00;99.90;;;;;;1916511;73;25218;-87
2024/04/19 07:32:45;;;;;;;5.87;3.43;;;2.00;99.90;;;;;;1916757;73;25229;-87
2024/04/19 07:35:34;;;;;;;2.67;1.90;;;2.30;99.90;;;;;;1916601;73;25278;-87
2024/04/19 07:38:23;;;;;;;2.73;1.97;;;2.40;99.90;;;;;;1922589;73;25829;-87
2024/04/19 07:46:33;;;;;;;3.70;2.33;;;2.50;99.90;;;;;;1952509;72;27552;-87
2024/04/19 07:52:07;;;;;;;3.30;2.10;;;2.20;99.90;;;;;;1950312;72;26984;-88
2024/04/19 07:54:56;;;;;;;7.73;3.33;;;2.20;99.90;;;;;;1918476;73;25287;-86
2024/04/19 07:57:48;;;;;;;5.80;2.70;;;2.10;99.90;;;;;;1919466;73;25266;-87
2024/04/19 08:00:36;;;;;;;7.30;2.57;;;2.00;99.90;;;;;;1923689;73;25850;-85
2024/04/19 08:03:25;;;;;;;4.03;2.00;;;2.20;99.90;;;;;;1917408;75;25720;-86
2024/04/19 08:08:53;;;;;;;3.00;2.20;;;2.30;99.90;;;;;;1934548;72;27556;-86
2024/04/19 08:11:42;;;;;;;4.13;2.43;;;2.50;99.90;;;;;;1907886;74;25274;-87
2024/04/19 08:19:57;;;;;;;5.83;2.33;;;2.70;99.90;;;;;;1950692;72;26884;-86
2024/04/19 08:25:25;;;;;;;2.83;1.67;;;2.90;99.90;;;;;;1924039;72;27459;-85
2024/04/19 08:28:13;;;;;;;4.77;2.17;;;2.90;99.90;;;;;;1877726;76;25238;-86
2024/04/19 08:31:02;;;;;;;1.43;1.30;;;2.70;99.90;;;;;;1861444;75;25200;-87
2024/04/19 08:33:50;;;;;;;2.27;1.93;;;2.60;99.90;;;;;;1857690;76;25784;-86
2024/04/19 08:36:39;;;;;;;13.70;2.17;;;2.70;99.90;;;;;;1849059;76;25851;-87
2024/04/19 08:39:27;;;;;;;2.33;1.77;;;2.80;99.90;;;;;;1813681;77;25199;-86
2024/04/19 08:42:17;;;;;;;2.93;2.20;;;2.60;99.90;;;;;;1832121;76;25250;-86
2024/04/19 08:45:09;;;;;;;5.30;2.80;;;2.70;99.90;;;;;;1832113;76;25275;-86
2024/04/19 08:47:59;;;;;;;3.53;2.77;;;2.60;99.90;;;;;;1840243;76;25292;-86
2024/04/19 08:50:49;;;;;;;1.20;1.03;;;2.80;99.90;;;;;;1862186;76;25755;-86
2024/04/19 08:56:26;;;;;;;2.13;1.60;;;2.70;99.90;;;;;;1952099;72;27018;-86
2024/04/19 08:59:15;;;;;;;2.30;1.70;;;2.60;99.90;;;;;;1934268;73;25232;-87
2024/04/19 09:04:44;;;;;;;2.77;1.80;;;2.40;99.90;;;;;;1938848;72;28339;-85
2024/04/19 09:07:33;;;;;;;1.60;1.50;;;2.40;99.90;;;;;;1896474;75;25694;-86
2024/04/19 09:10:22;;;;;;;3.10;2.40;;;2.60;99.90;;;;;;1907744;75;25158;-86
2024/04/19 09:13:11;;;;;;;2.80;2.03;;;2.80;99.90;;;;;;1899079;75;25211;-86
2024/04/19 09:16:00;;;;;;;3.93;2.23;;;3.00;99.90;;;;;;1896587;75;25345;-86
2024/04/19 09:18:51;;;;;;;3.53;2.37;;;3.10;99.90;;;;;;1910996;75;25302;-86
2024/04/19 09:21:39;;;;;;;2.00;1.87;;;3.10;99.90;;;;;;1892665;75;25805;-86
2024/04/19 09:24:28;;;;;;;5.40;1.73;;;2.90;99.90;;;;;;1891128;75;25288;-86
2024/04/19 09:27:16;;;;;;;2.40;1.57;;;2.90;99.90;;;;;;1908833;75;25781;-86
2024/04/19 09:30:06;;;;;;;3.33;2.10;;;2.70;99.90;;;;;;1906822;75;25241;-86
2024/04/19 09:32:55;;;;;;;1.00;1.00;;;2.70;99.90;;;;;;1898695;75;25716;-86
2024/04/19 09:35:44;;;;;;;3.23;2.27;;;2.60;99.90;;;;;;1900954;75;25277;-85
2024/04/19 09:38:35;;;;;;;6.50;1.87;;;2.80;99.90;;;;;;1891420;75;25330;-87
2024/04/19 09:44:09;;;;;;;2.00;1.40;;;2.80;99.90;;;;;;1954729;72;27480;-86
2024/04/19 09:47:01;;;;;;;1.63;1.50;;;2.90;99.90;;;;;;1927924;73;25256;-86
2024/04/19 09:49:51;;;;;;;2.07;1.87;;;2.90;99.90;;;;;;1936043;73;25178;-86
2024/04/19 09:52:42;;;;;;;3.07;2.13;;;2.80;99.90;;;;;;1917271;73;25692;-86
2024/04/19 09:58:16;;;;;;;1.73;1.50;;;3.00;99.90;;;;;;1946361;72;27094;-86
2024/04/19 10:01:06;;;;;;;1.40;1.30;;;3.10;99.90;;;;;;1927834;73;25730;-86
2024/04/19 10:03:57;;;;;;;2.57;1.20;;;3.10;99.90;;;;;;1941265;73;25841;-86
2024/04/19 10:06:45;;;;;;;1.83;1.73;;;3.00;99.90;;;;;;1931944;73;25860;-86
2024/04/19 10:09:35;;;;;;;3.20;1.87;;;3.00;99.90;;;;;;1942200;73;25270;-86
2024/04/19 10:12:24;;;;;;;2.13;1.90;;;3.10;99.90;;;;;;1872921;76;25282;-86
2024/04/19 10:15:13;;;;;;;2.73;1.37;;;3.00;99.90;;;;;;1921786;73;25275;-86
2024/04/19 10:20:44;;;;;;;2.10;1.63;;;3.10;99.90;;;;;;1920719;72;27472;-87
2024/04/19 10:23:33;;;;;;;3.47;1.47;;;3.40;99.90;;;;;;1901633;74;25948;-85
2024/04/19 10:29:03;;;;;;;2.90;1.70;;;3.60;99.90;;;;;;1943163;72;27114;-86
2024/04/19 10:34:31;;;;;;;6.30;1.80;;;3.70;99.90;;;;;;1937289;72;27507;-86
2024/04/19 10:37:20;;;;;;;1.87;1.53;;;3.70;99.90;;;;;;1849683;76;25271;-85
2024/04/19 10:40:14;;;;;;;4.33;2.47;;;3.70;99.90;;;;;;1852820;76;25186;-86
2024/04/19 10:43:03;;;;;;;3.27;2.30;;;3.70;99.90;;;;;;1911052;73;25715;-85
2024/04/19 10:45:52;;;;;;;1.67;1.57;;;3.70;99.90;;;;;;1907282;73;25209;-85
2024/04/19 10:48:42;;;;;;;1.40;1.10;;;3.80;99.90;;;;;;1874202;76;25230;-85
2024/04/19 10:51:31;;;;;;;2.83;1.80;;;3.90;99.90;;;;;;1822169;78;25278;-85
2024/04/19 10:54:20;;;;;;;1.00;1.00;;;3.80;99.90;;;;;;1904083;73;25348;-85
2024/04/19 10:57:08;;;;;;;3.20;1.53;;;3.80;99.90;;;;;;1882978;75;25175;-85
2024/04/19 10:59:57;;;;;;;6.97;1.73;;;3.60;99.90;;;;;;1893640;75;25148;-87
2024/04/19 11:02:46;;;;;;;3.03;2.20;;;3.30;99.90;;;;;;1846040;77;25228;-88
2024/04/19 11:05:35;;;;;;;1.50;1.30;;;3.40;99.90;;;;;;1854830;76;25224;-86
2024/04/19 11:08:24;;;;;;;2.13;1.60;;;3.60;99.90;;;;;;1835604;78;25658;-85
2024/04/19 11:13:59;;;;;;;1.70;1.60;;;3.40;99.90;;;;;;1950541;72;26837;-86
2024/04/19 11:16:48;;;;;;;1.40;1.30;;;3.20;99.90;;;;;;1931222;73;25262;-85
2024/04/19 11:19:36;;;;;;;4.60;1.63;;;3.30;99.90;;;;;;1939004;72;25204;-86
2024/04/19 11:22:25;;;;;;;3.53;2.60;;;3.50;99.90;;;;;;1918390;73;25302;-85
2024/04/19 11:25:14;;;;;;;1.33;1.27;;;3.50;99.90;;;;;;1936487;73;25158;-85
2024/04/19 11:28:04;;;;;;;2.87;1.83;;;3.80;99.90;;;;;;1937584;73;25808;-85
2024/04/19 11:30:54;;;;;;;2.20;1.40;;;3.80;99.90;;;;;;1944986;73;25626;-86
2024/04/19 11:33:43;;;;;;;3.27;2.10;;;3.50;99.90;;;;;;1930857;72;25739;-86
2024/04/19 11:36:35;;;;;;;2.23;1.73;;;3.50;99.90;;;;;;1930297;73;25258;-86
2024/04/19 11:39:25;;;;;;;1.97;1.47;;;3.80;99.90;;;;;;1936225;73;25221;-85
2024/04/19 11:42:14;;;;;;;1.37;1.27;;;4.10;99.90;;;;;;1937620;72;25729;-85
2024/04/19 11:45:06;;;;;;;1.60;1.50;;;3.80;99.90;;;;;;1934582;72;25230;-85
2024/04/19 11:47:54;;;;;;;1.17;1.10;;;3.70;99.90;;;;;;1892269;75;25717;-85
2024/04/19 11:50:43;;;;;;;2.37;2.07;;;3.50;99.90;;;;;;1884218;74;25866;-86
2024/04/19 11:53:31;;;;;;;2.13;1.80;;;3.60;99.90;;;;;;1835553;77;25263;-87
2024/04/19 11:56:20;;;;;;;3.50;1.80;;;3.60;99.90;;;;;;1866747;75;25382;-87
2024/04/19 12:01:50;;;;;;;1.70;1.60;;;3.60;99.90;;;;;;1935481;72;27586;-86
2024/04/19 12:04:39;;;;;;;1.80;1.70;;;3.60;99.90;;;;;;1897381;75;25200;-86
2024/04/19 12:07:28;;;;;;;3.73;2.00;;;3.60;99.90;;;;;;1897986;75;25852;-86
2024/04/19 12:10:19;;;;;;;2.70;2.07;;;3.70;99.90;;;;;;1903346;75;25172;-87
2024/04/19 12:13:09;;;;;;;2.27;1.70;;;3.90;99.90;;;;;;1912103;75;25778;-87
2024/04/19 12:15:58;;;;;;;3.50;2.20;;;3.70;99.90;;;;;;1905408;75;26711;-86
2024/04/19 12:21:32;;;;;;;2.60;1.70;;;3.60;99.90;;;;;;1941748;72;27057;-86
2024/04/19 12:24:20;;;;;;;4.50;1.63;;;3.60;99.90;;;;;;1888937;74;25231;-85
2024/04/19 12:27:10;;;;;;;1.97;1.47;;;3.70;99.90;;;;;;1895906;75;25314;-85
2024/04/19 12:32:40;;;;;;;3.20;2.00;;;3.90;99.90;;;;;;1948865;72;27484;-83
2024/04/19 12:35:29;;;;;;;2.70;1.60;;;3.80;99.90;;;;;;1921859;72;25364;-87
2024/04/19 12:40:58;;;;;;;2.27;1.97;;;3.90;99.90;;;;;;1944355;72;27059;-86
2024/04/19 12:43:47;;;;;;;3.23;1.80;;;3.80;99.90;;;;;;1908049;75;25150;-86
2024/04/19 12:46:36;;;;;;;2.43;1.60;;;3.70;99.90;;;;;;1910041;75;25640;-87
2024/04/19 12:49:25;;;;;;;2.83;2.10;;;3.70;99.90;;;;;;1887740;75;25289;-86
2024/04/19 12:52:13;;;;;;;2.40;2.20;;;3.70;99.90;;;;;;1889035;75;25289;-87
2024/04/19 12:55:02;;;;;;;1.47;1.27;;;3.80;99.90;;;;;;1887321;75;25273;-86
2024/04/19 12:57:51;;;;;;;1.73;1.50;;;3.80;99.90;;;;;;1881512;75;25350;-85
2024/04/19 13:00:40;;;;;;;4.97;1.47;;;3.60;99.90;;;;;;1872882;75;25306;-86
2024/04/19 13:03:28;;;;;;;1.00;1.00;;;3.60;99.90;;;;;;1874063;76;25717;-86
2024/04/19 13:06:17;;;;;;;1.90;1.67;;;3.50;99.90;;;;;;1862792;76;25288;-86
2024/04/19 13:11:45;;;;;;;1.77;1.27;;;3.70;99.90;;;;;;1946359;72;27056;-87
2024/04/19 13:14:34;;;;;;;1.80;1.47;;;3.80;99.90;;;;;;1904209;73;25615;-85
2024/04/19 13:20:04;;;;;;;2.83;2.10;;;3.70;99.90;;;;;;1925845;72;27047;-86
2024/04/19 13:22:52;;;;;;;2.40;2.10;;;3.90;99.90;;;;;;1908185;75;25306;-86
2024/04/19 13:25:41;;;;;;;1.40;1.30;;;3.70;99.90;;;;;;1906041;75;25220;-85
2024/04/19 13:31:10;;;;;;;2.33;1.70;;;3.80;99.90;;;;;;1931706;72;27100;-86
2024/04/19 13:33:59;;;;;;;3.90;1.57;;;3.80;99.90;;;;;;1884205;75;25221;-86
2024/04/19 13:36:48;;;;;;;10.63;2.07;;;3.70;99.90;;;;;;1897730;75;25320;-86
2024/04/19 13:42:18;;;;;;;1.43;1.20;;;3.50;99.90;;;;;;1942433;72;27046;-86
2024/04/19 13:45:08;;;;;;;3.60;2.70;;;3.50;99.90;;;;;;1933898;73;25277;-86
2024/04/19 13:47:56;;;;;;;3.63;2.17;;;3.50;99.90;;;;;;1940151;72;25202;-85
2024/04/19 13:53:24;;;;;;;1.90;1.57;;;3.50;99.90;;;;;;2032710;69;27276;-84
2024/04/19 13:58:58;;;;;;;3.30;2.17;;;3.50;99.90;;;;;;1946678;72;26976;-86
2024/04/19 14:01:47;;;;;;;2.17;1.97;;;3.50;99.90;;;;;;1903388;75;25254;-86
2024/04/19 14:04:36;;;;;;;7.00;2.80;;;3.70;99.90;;;;;;1970463;72;25261;-86
2024/04/19 14:07:25;;;;;;;7.40;3.30;;;3.70;99.90;;;;;;1939869;72;25233;-86
2024/04/19 14:10:13;;;;;;;3.17;2.20;;;3.70;99.90;;;;;;1954643;72;25217;-85
2024/04/19 14:13:02;;;;;;;2.30;2.07;;;3.70;99.90;;;;;;1948175;72;26411;-85
2024/04/19 14:15:51;;;;;;;3.33;2.30;;;3.60;99.90;;;;;;1936116;72;25698;-84
2024/04/19 14:18:39;;;;;;;4.07;2.20;;;3.60;99.90;;;;;;1939878;72;25270;-85
2024/04/19 14:21:29;;;;;;;4.90;2.63;;;3.60;99.90;;;;;;1937581;73;25238;-85
2024/04/19 14:24:17;;;;;;;4.90;2.70;;;3.50;99.90;;;;;;1958524;72;25203;-86
2024/04/19 14:27:07;;;;;;;5.77;2.30;;;3.40;99.90;;;;;;1936135;73;25307;-85
2024/04/19 14:29:56;;;;;;;2.17;1.97;;;3.40;99.90;;;;;;1931425;73;25331;-84
2024/04/19 14:35:24;;;;;;;2.77;2.47;;;3.40;99.90;;;;;;1948573;72;27097;-86
2024/04/19 14:38:12;;;;;;;2.33;1.80;;;3.50;99.90;;;;;;1927851;73;25277;-86
2024/04/19 14:41:03;;;;;;;4.33;2.30;;;3.60;99.90;;;;;;1917292;75;25686;-86
2024/04/19 14:43:51;;;;;;;2.57;1.57;;;3.60;99.90;;;;;;1935886;73;25174;-86
2024/04/19 14:46:40;;;;;;;5.40;2.40;;;3.60;99.90;;;;;;1936899;73;25241;-85
2024/04/19 14:49:28;;;;;;;3.83;2.30;;;3.60;99.90;;;;;;1925928;73;25385;-85
2024/04/19 14:52:17;;;;;;;3.10;1.93;;;3.60;99.90;;;;;;1928353;73;25347;-85
2024/04/19 14:55:07;;;;;;;2.70;2.40;;;3.60;99.90;;;;;;1865937;75;25222;-86
2024/04/19 14:57:55;;;;;;;2.27;1.90;;;3.60;99.90;;;;;;1911022;73;25251;-85
2024/04/19 15:00:43;;;;;;;3.93;2.67;;;3.50;99.90;;;;;;1913153;73;25667;-85
2024/04/19 15:03:32;;;;;;;2.40;2.20;;;3.30;99.90;;;;;;1908836;75;25143;-86
2024/04/19 15:06:21;;;;;;;2.33;1.97;;;3.30;99.90;;;;;;1899152;75;25718;-86
2024/04/19 15:09:09;;;;;;;3.37;2.40;;;3.40;99.90;;;;;;1902423;74;25226;-85
2024/04/19 15:11:58;;;;;;;3.13;2.30;;;3.40;99.90;;;;;;1903901;75;25147;-88
2024/04/19 15:14:46;;;;;;;6.10;2.47;;;3.40;99.90;;;;;;1914598;74;25220;-86
2024/04/19 15:17:34;;;;;;;4.10;2.33;;;3.50;99.90;;;;;;1915637;75;25249;-87
2024/04/19 15:20:24;;;;;;;2.77;2.50;;;3.50;99.90;;;;;;1911243;75;25224;-86
2024/04/19 15:23:13;;;;;;;3.43;2.50;;;3.60;99.90;;;;;;1910880;75;25217;-85
2024/04/19 15:26:04;;;;;;;6.20;2.53;;;3.60;99.90;;;;;;1899272;75;25214;-85
2024/04/19 15:31:40;;;;;;;2.73;2.30;;;3.80;99.90;;;;;;1930558;72;27116;-86
2024/04/19 15:37:09;;;;;;;3.53;2.13;;;3.90;99.90;;;;;;1945164;72;27013;-86
2024/04/19 15:39:58;;;;;;;2.90;1.80;;;3.80;99.90;;;;;;1910962;74;25170;-86
2024/04/19 15:42:48;;;;;;;2.97;1.97;;;3.60;99.90;;;;;;1902694;74;25211;-83
2024/04/19 15:45:36;;;;;;;5.40;2.10;;;3.70;99.90;;;;;;1900477;73;25186;-87
2024/04/19 15:51:06;;;;;;;6.10;2.43;;;3.70;99.90;;;;;;1926309;72;27652;-86
2024/04/19 15:53:55;;;;;;;9.07;2.83;;;3.70;99.90;;;;;;1868985;75;25235;-86
2024/04/19 16:02:15;;;;;;;3.23;2.30;;;3.80;99.90;;;;;;1924023;72;27214;-86
2024/04/19 16:05:04;;;;;;;4.23;2.10;;;3.80;99.90;;;;;;1923514;73;25257;-85
2024/04/19 16:10:46;;;;;;;4.57;1.83;;;3.90;99.90;;;;;;1947800;72;27008;-86
2024/04/19 16:13:37;;;;;;;3.23;2.60;;;3.80;99.90;;;;;;1943013;72;25191;-86
2024/04/19 16:16:29;;;;;;;3.50;2.13;;;3.90;99.90;;;;;;1951888;72;25236;-86
2024/04/19 16:19:24;;;;;;;3.33;2.23;;;3.90;99.90;;;;;;1958922;72;25193;-85
2024/04/19 16:22:19;;;;;;;5.33;3.03;;;3.70;99.90;;;;;;1943605;72;25356;-86
2024/04/19 16:27:58;;;;;;;7.20;2.37;;;3.80;99.90;;;;;;1952387;72;27101;-86
2024/04/19 16:30:45;;;;;;;4.93;2.20;;;3.70;99.90;;;;;;1936348;73;25298;-85
2024/04/19 16:33:34;;;;;;;5.70;2.77;;;3.70;99.90;;;;;;1930258;73;25297;-85
2024/04/19 16:39:07;;;;;;;4.73;2.80;;;3.60;99.90;;;;;;1944116;72;28818;-87
2024/04/19 16:41:58;;;;;;;4.30;2.50;;;3.80;99.90;;;;;;1901880;74;25225;-86
2024/04/19 16:44:51;;;;;;;4.73;2.40;;;3.70;99.90;;;;;;1898067;75;25162;-86
2024/04/19 16:50:23;;;;;;;3.13;2.50;;;3.70;99.90;;;;;;1950818;72;27207;-86
2024/04/19 16:53:12;;;;;;;3.53;2.60;;;3.60;99.90;;;;;;1935626;73;25282;-86
2024/04/19 16:56:05;;;;;;;3.47;2.27;;;3.60;99.90;;;;;;1905867;73;25318;-86
2024/04/19 16:58:58;;;;;;;3.97;2.67;;;3.50;99.90;;;;;;1914001;73;25287;-86
2024/04/19 17:01:47;;;;;;;3.00;2.40;;;3.50;99.90;;;;;;1905634;73;25251;-87
2024/04/19 17:04:37;;;;;;;5.33;2.43;;;3.50;99.90;;;;;;1902731;73;25640;-87
2024/04/19 17:07:26;;;;;;;2.90;2.50;;;3.60;99.90;;;;;;1912248;73;25332;-86
2024/04/19 17:10:14;;;;;;;5.60;3.07;;;3.70;99.90;;;;;;1918363;74;25236;-86
2024/04/19 17:13:03;;;;;;;5.43;2.70;;;3.80;99.90;;;;;;1933660;74;25255;-85
2024/04/19 17:15:52;;;;;;;7.20;3.30;;;3.60;99.90;;;;;;1908558;74;25716;-85
2024/04/19 17:18:46;;;;;;;7.07;3.77;;;3.50;99.90;;;;;;1906681;75;25221;-87
2024/04/19 17:24:14;;;;;;;6.30;2.97;;;3.60;99.90;;;;;;1947408;72;27777;-87
2024/04/19 17:29:49;;;;;;;4.87;2.90;;;3.70;99.90;;;;;;1945287;72;27419;-87
2024/04/19 17:32:39;;;;;;;5.03;2.60;;;3.70;99.90;;;;;;1945509;72;25177;-86
2024/04/19 17:35:40;;;;;;;4.23;2.40;;;3.70;99.90;;;;;;1933636;73;25197;-87
2024/04/19 17:38:28;;;;;;;5.07;2.73;;;3.60;99.90;;;;;;1932582;74;25307;-85
2024/04/19 17:41:17;;;;;;;5.03;3.27;;;3.60;99.90;;;;;;1948259;72;25680;-85
2024/04/19 17:44:17;;;;;;;5.80;3.27;;;3.50;99.90;;;;;;1955113;72;25237;-86
2024/04/19 17:47:07;;;;;;;7.10;3.20;;;3.60;99.90;;;;;;1913818;73;25607;-86